Time;durP1;ratioP1;P1;durP2;ratioP2;P2;SDS_P1;SDS_P2;PMS_P1;PMS_P2;Temp;Humidity;BMP_temperature;BMP_pressure;BME280_temperature;BME280_humidity;BME280_pressure;Samples;Min_cycle;Max_cycle;Signal;HPM_P1;HPM_P2
2022/07/01 00:01:45;;;;;;;7.45;4.00;;;22.50;98.70;;;;;;5051485;28;20044;-72
2022/07/01 00:04:11;;;;;;;5.40;4.47;;;22.50;99.10;;;;;;5051406;28;20436;-73
2022/07/01 00:06:37;;;;;;;9.93;5.80;;;22.20;99.60;;;;;;5051934;28;20103;-71
2022/07/01 00:09:04;;;;;;;6.90;3.90;;;22.10;99.90;;;;;;5051216;28;20025;-73
2022/07/01 00:11:31;;;;;;;9.48;4.60;;;22.20;99.90;;;;;;5050701;28;20036;-72
2022/07/01 00:13:57;;;;;;;5.68;4.30;;;22.10;99.90;;;;;;5051170;28;20107;-72
2022/07/01 00:16:22;;;;;;;5.68;3.83;;;22.10;99.90;;;;;;5050988;28;20067;-72
2022/07/01 00:18:48;;;;;;;6.47;3.97;;;22.00;99.90;;;;;;5051327;28;20025;-73
2022/07/01 00:21:14;;;;;;;5.40;3.65;;;22.00;99.90;;;;;;5049755;28;20452;-72
2022/07/01 00:23:43;;;;;;;5.70;3.67;;;21.80;99.90;;;;;;5049755;28;20128;-73
2022/07/01 00:26:09;;;;;;;5.78;3.20;;;21.90;99.90;;;;;;5050812;28;20036;-73
2022/07/01 00:28:35;;;;;;;8.13;3.67;;;21.90;99.80;;;;;;5050763;28;20036;-73
2022/07/01 00:31:00;;;;;;;6.00;3.08;;;21.90;99.80;;;;;;5051650;28;20446;-72
2022/07/01 00:33:26;;;;;;;5.57;3.25;;;21.90;99.30;;;;;;5050694;28;20041;-72
2022/07/01 00:35:53;;;;;;;4.43;3.22;;;21.80;99.40;;;;;;5050677;28;20048;-73
2022/07/01 00:38:18;;;;;;;3.50;2.90;;;21.70;99.40;;;;;;5050747;28;20405;-73
2022/07/01 00:40:44;;;;;;;5.10;2.60;;;21.60;99.50;;;;;;5050453;28;20417;-73
2022/07/01 00:43:10;;;;;;;4.57;2.35;;;21.50;99.30;;;;;;5050687;28;20040;-72
2022/07/01 00:45:35;;;;;;;5.65;2.60;;;21.30;99.40;;;;;;5051063;28;20029;-73
2022/07/01 00:48:02;;;;;;;8.10;2.50;;;21.20;99.30;;;;;;5049080;28;20053;-73
2022/07/01 00:50:28;;;;;;;6.28;2.70;;;21.10;99.50;;;;;;5050204;28;20036;-74
2022/07/01 00:52:54;;;;;;;3.95;2.67;;;21.10;99.70;;;;;;5050138;28;20041;-74
2022/07/01 00:55:20;;;;;;;3.25;2.95;;;21.00;99.80;;;;;;5050714;28;20428;-74
2022/07/01 00:57:45;;;;;;;3.83;2.53;;;20.80;99.90;;;;;;5050721;28;20027;-74
2022/07/01 01:00:22;;;;;;;4.53;2.72;;;20.90;99.90;;;;;;5050260;28;20029;-72
2022/07/01 01:02:48;;;;;;;4.88;2.85;;;20.90;99.90;;;;;;5050327;28;20123;-74
2022/07/01 01:05:13;;;;;;;5.38;3.30;;;20.90;99.90;;;;;;5050354;28;20132;-74
2022/07/01 01:07:39;;;;;;;8.75;3.60;;;20.80;99.90;;;;;;5050022;28;20041;-74
2022/07/01 01:10:05;;;;;;;5.85;3.20;;;20.70;99.90;;;;;;5050018;28;20043;-72
2022/07/01 01:12:32;;;;;;;4.45;3.35;;;20.70;99.90;;;;;;5050309;28;20029;-73
2022/07/01 01:14:57;;;;;;;8.35;3.90;;;20.60;99.90;;;;;;5050337;28;20049;-73
2022/07/01 01:17:23;;;;;;;5.10;3.50;;;20.70;99.90;;;;;;5050382;28;20244;-72
2022/07/01 01:19:50;;;;;;;5.22;3.55;;;20.70;99.90;;;;;;5050347;28;20021;-72
2022/07/01 01:22:17;;;;;;;6.90;3.83;;;20.70;99.90;;;;;;5048820;28;20039;-74
2022/07/01 01:24:49;;;;;;;6.43;4.32;;;20.60;99.90;;;;;;5050508;28;20021;-73
2022/07/01 01:27:16;;;;;;;9.82;4.28;;;20.70;99.90;;;;;;5050196;28;20110;-73
2022/07/01 01:29:42;;;;;;;7.38;4.30;;;20.60;99.90;;;;;;5049875;28;20056;-72
2022/07/01 01:32:08;;;;;;;7.40;4.03;;;20.50;99.90;;;;;;5048735;28;20029;-73
2022/07/01 01:34:39;;;;;;;8.02;4.15;;;20.50;99.90;;;;;;5049934;28;20036;-71
2022/07/01 01:37:07;;;;;;;6.22;3.88;;;20.40;99.90;;;;;;5068433;28;20115;-71
2022/07/01 01:39:33;;;;;;;5.15;4.20;;;20.30;99.90;;;;;;5070349;28;20035;-72
2022/07/01 01:41:59;;;;;;;6.45;4.03;;;20.30;99.90;;;;;;5069907;28;20082;-71
2022/07/01 01:44:24;;;;;;;9.05;3.78;;;20.10;99.90;;;;;;5068846;28;20433;-72
2022/07/01 01:46:50;;;;;;;4.88;2.90;;;20.10;99.90;;;;;;5069993;28;20526;-72
2022/07/01 01:49:15;;;;;;;5.13;2.28;;;19.90;99.90;;;;;;5069612;28;20512;-73
2022/07/01 01:51:41;;;;;;;4.72;2.85;;;19.90;99.90;;;;;;5070116;28;20021;-73
2022/07/01 01:54:07;;;;;;;2.45;2.22;;;20.00;99.90;;;;;;5068334;28;20047;-73
2022/07/01 01:56:33;;;;;;;5.88;3.00;;;20.00;99.90;;;;;;5069693;28;20123;-73
2022/07/01 01:58:59;;;;;;;4.38;2.90;;;19.90;99.90;;;;;;5069595;28;20032;-72
2022/07/01 02:01:25;;;;;;;4.60;2.75;;;19.90;99.90;;;;;;5073154;28;20047;-72
2022/07/01 02:03:52;;;;;;;4.53;2.58;;;19.90;99.90;;;;;;5073965;28;20020;-73
2022/07/01 02:06:18;;;;;;;6.18;2.60;;;20.00;99.90;;;;;;5073560;28;20028;-72
2022/07/01 02:08:45;;;;;;;3.75;2.80;;;19.90;99.90;;;;;;5073424;28;20029;-73
2022/07/01 02:11:11;;;;;;;5.88;4.88;;;19.90;99.90;;;;;;5073523;28;20039;-73
2022/07/01 02:13:37;;;;;;;6.28;5.22;;;19.80;99.90;;;;;;5072203;28;20455;-73
2022/07/01 02:16:05;;;;;;;6.93;4.88;;;19.90;99.90;;;;;;5074017;28;20021;-72
2022/07/01 02:18:32;;;;;;;4.47;3.85;;;19.60;99.90;;;;;;5073291;28;20040;-73
2022/07/01 02:20:58;;;;;;;5.43;3.22;;;19.60;99.90;;;;;;5073030;28;20035;-72
2022/07/01 02:23:24;;;;;;;4.95;3.15;;;19.50;99.90;;;;;;5073209;28;20028;-73
2022/07/01 02:25:50;;;;;;;4.10;2.50;;;19.50;99.90;;;;;;5073268;28;20408;-72
2022/07/01 02:28:16;;;;;;;3.58;2.28;;;19.60;99.90;;;;;;5073160;28;20035;-73
2022/07/01 02:30:42;;;;;;;2.97;1.67;;;19.60;99.90;;;;;;5073682;28;20028;-73
2022/07/01 02:33:09;;;;;;;2.08;1.33;;;19.60;99.90;;;;;;5072931;28;20025;-72
2022/07/01 02:35:36;;;;;;;2.13;1.30;;;19.40;99.90;;;;;;5072901;28;20120;-71
2022/07/01 02:38:03;;;;;;;1.60;1.17;;;19.30;99.90;;;;;;5071833;28;20039;-73
2022/07/01 02:40:29;;;;;;;3.33;1.27;;;19.50;99.90;;;;;;5072721;28;20363;-73
2022/07/01 02:42:55;;;;;;;4.07;1.25;;;19.30;99.90;;;;;;5073256;28;20029;-73
2022/07/01 02:45:20;;;;;;;2.22;1.25;;;19.20;99.90;;;;;;5072739;28;20447;-72
2022/07/01 02:47:46;;;;;;;1.15;1.08;;;19.10;99.90;;;;;;5071664;28;20425;-72
2022/07/01 02:50:14;;;;;;;2.17;1.42;;;19.00;99.90;;;;;;5072513;28;20419;-72
2022/07/01 02:52:41;;;;;;;1.52;1.13;;;19.00;99.90;;;;;;5072473;28;20052;-72
2022/07/01 02:55:10;;;;;;;5.75;1.70;;;19.10;99.90;;;;;;5072286;28;20103;-72
2022/07/01 02:57:36;;;;;;;2.45;1.80;;;19.10;99.90;;;;;;5072919;28;20251;-72
2022/07/01 03:00:05;;;;;;;2.50;1.90;;;19.30;99.90;;;;;;5072572;28;20025;-72
2022/07/01 03:02:32;;;;;;;2.10;1.90;;;19.20;99.90;;;;;;5072535;28;20025;-73
2022/07/01 03:04:58;;;;;;;3.60;2.00;;;18.90;99.90;;;;;;5072339;28;20044;-73
2022/07/01 03:07:24;;;;;;;3.30;1.95;;;18.90;99.90;;;;;;5072198;28;20058;-72
2022/07/01 03:09:50;;;;;;;10.85;2.10;;;18.90;99.90;;;;;;5072550;28;20450;-72
2022/07/01 03:12:29;;;;;;;2.97;2.00;;;19.00;99.90;;;;;;5069816;28;20120;-73
2022/07/01 03:14:58;;;;;;;2.78;2.17;;;19.10;99.90;;;;;;5072107;28;20087;-72
2022/07/01 03:17:25;;;;;;;4.30;2.10;;;19.20;99.90;;;;;;5072447;28;20259;-73
2022/07/01 03:19:53;;;;;;;4.50;2.30;;;19.00;99.90;;;;;;5072280;28;20029;-73
2022/07/01 03:22:21;;;;;;;4.10;2.08;;;18.90;99.90;;;;;;5070831;28;20024;-73
2022/07/01 03:24:48;;;;;;;2.25;2.05;;;18.80;99.90;;;;;;5054819;28;20437;-73
2022/07/01 03:27:14;;;;;;;3.72;2.10;;;18.80;99.90;;;;;;5071925;28;20107;-72
2022/07/01 03:29:41;;;;;;;4.97;2.55;;;18.90;99.90;;;;;;5072011;28;20111;-73
2022/07/01 03:32:09;;;;;;;3.58;2.15;;;19.00;99.90;;;;;;5071961;28;20143;-74
2022/07/01 03:34:39;;;;;;;5.78;2.10;;;18.90;99.90;;;;;;5071962;28;20025;-72
2022/07/01 03:37:06;;;;;;;4.40;1.90;;;18.90;99.90;;;;;;5071961;28;20027;-73
2022/07/01 03:39:32;;;;;;;3.13;2.08;;;19.00;99.90;;;;;;5072117;28;20017;-72
2022/07/01 03:41:58;;;;;;;2.70;2.35;;;19.00;99.90;;;;;;5071574;28;20394;-73
2022/07/01 03:44:24;;;;;;;4.80;2.35;;;18.80;99.90;;;;;;5071756;28;20039;-74
2022/07/01 03:46:49;;;;;;;4.00;2.10;;;18.90;99.90;;;;;;5071846;28;20545;-74
2022/07/01 03:49:15;;;;;;;2.10;1.83;;;18.90;99.90;;;;;;5071764;28;20488;-74
2022/07/01 03:51:41;;;;;;;3.00;1.88;;;18.90;99.90;;;;;;5071936;28;20016;-72
2022/07/01 03:56:51;;;;;;;5.35;1.85;;;18.70;99.80;;;;;;5071163;28;20157;-73
2022/07/01 03:59:17;;;;;;;3.25;1.60;;;18.80;99.90;;;;;;5071604;28;20408;-72
2022/07/01 04:01:42;;;;;;;3.17;1.67;;;18.80;99.90;;;;;;5071355;28;20466;-73
2022/07/01 04:04:08;;;;;;;3.85;1.73;;;18.60;99.90;;;;;;5071039;28;20024;-72
2022/07/01 04:06:34;;;;;;;3.33;1.80;;;18.50;99.90;;;;;;5071630;28;20157;-73
2022/07/01 04:09:00;;;;;;;2.60;1.90;;;18.60;99.90;;;;;;5069935;28;20032;-73
2022/07/01 04:11:26;;;;;;;1.70;1.60;;;18.40;99.90;;;;;;5071013;28;20417;-73
2022/07/01 04:13:52;;;;;;;2.35;1.70;;;18.40;99.90;;;;;;5070907;28;20040;-73
2022/07/01 04:16:18;;;;;;;3.47;2.05;;;18.50;99.90;;;;;;5070755;28;20482;-74
2022/07/01 04:18:45;;;;;;;3.78;1.90;;;18.30;99.90;;;;;;5071165;28;20021;-72
2022/07/01 04:23:56;;;;;;;4.03;1.88;;;18.10;99.90;;;;;;5070437;28;20060;-72
2022/07/01 04:26:23;;;;;;;5.00;1.83;;;18.20;99.90;;;;;;5070812;28;20039;-74
2022/07/01 04:28:52;;;;;;;3.53;1.70;;;18.10;99.90;;;;;;5070579;28;20040;-72
2022/07/01 04:31:19;;;;;;;1.80;1.33;;;18.00;99.90;;;;;;5070266;28;20021;-72
2022/07/01 04:33:45;;;;;;;4.10;2.40;;;18.10;99.90;;;;;;5070844;28;20147;-71
2022/07/01 04:36:11;;;;;;;4.95;1.85;;;18.30;99.90;;;;;;5070649;28;20346;-71
2022/07/01 04:38:37;;;;;;;5.38;1.98;;;18.20;99.90;;;;;;5070317;28;20234;-71
2022/07/01 04:43:50;;;;;;;2.97;1.55;;;18.00;99.90;;;;;;5070406;28;20040;-72
2022/07/01 04:46:15;;;;;;;4.80;1.83;;;18.10;99.90;;;;;;5070323;28;20028;-72
2022/07/01 04:48:41;;;;;;;3.00;1.55;;;18.20;99.90;;;;;;5069699;28;20276;-72
2022/07/01 04:51:07;;;;;;;10.35;2.88;;;18.20;99.90;;;;;;5070358;28;20029;-73
2022/07/01 04:53:33;;;;;;;6.45;1.73;;;18.30;99.90;;;;;;5070147;28;20044;-73
2022/07/01 04:55:59;;;;;;;2.90;1.70;;;18.40;99.90;;;;;;5068932;28;20119;-73
2022/07/01 04:58:25;;;;;;;3.83;1.77;;;18.20;99.90;;;;;;5070078;28;20120;-73
2022/07/01 05:00:51;;;;;;;4.65;1.98;;;18.10;99.90;;;;;;5070719;28;20110;-72
2022/07/01 05:03:17;;;;;;;6.95;1.67;;;18.30;99.90;;;;;;5069955;28;20039;-72
2022/07/01 05:05:43;;;;;;;3.33;1.88;;;18.20;99.90;;;;;;5068883;28;20025;-72
2022/07/01 05:08:09;;;;;;;5.75;2.13;;;18.10;99.90;;;;;;5069932;28;20515;-72
2022/07/01 05:10:35;;;;;;;4.20;2.15;;;18.20;99.90;;;;;;5070152;28;20040;-72
2022/07/01 05:13:00;;;;;;;17.00;2.80;;;18.20;99.90;;;;;;5070300;28;20044;-73
2022/07/01 05:15:26;;;;;;;8.25;2.28;;;18.30;99.90;;;;;;5070053;28;20435;-71
2022/07/01 05:23:21;;;;;;;4.20;1.80;;;18.00;99.90;;;;;;5069893;28;20171;-72
2022/07/01 05:25:47;;;;;;;3.33;2.20;;;18.10;99.90;;;;;;5069839;28;20119;-72
2022/07/01 05:28:13;;;;;;;5.38;2.42;;;17.80;99.90;;;;;;5068055;28;20024;-72
2022/07/01 05:30:39;;;;;;;4.25;2.20;;;17.80;99.90;;;;;;5070827;28;20009;-74
2022/07/01 05:33:04;;;;;;;3.60;2.20;;;17.90;99.90;;;;;;5070212;28;20278;-73
2022/07/01 05:35:31;;;;;;;6.60;3.10;;;17.90;99.90;;;;;;5070669;28;20129;-74
2022/07/01 05:37:56;;;;;;;4.68;3.42;;;17.90;99.90;;;;;;5074072;28;20044;-70
2022/07/01 05:40:22;;;;;;;5.43;2.90;;;17.90;99.90;;;;;;5073704;28;20024;-72
2022/07/01 05:42:48;;;;;;;6.75;3.30;;;17.90;99.90;;;;;;5073352;28;20029;-74
2022/07/01 05:45:14;;;;;;;5.65;3.00;;;17.90;99.90;;;;;;5074143;28;20469;-72
2022/07/01 05:47:40;;;;;;;4.75;3.67;;;18.00;99.90;;;;;;5074076;28;20498;-73
2022/07/01 05:50:06;;;;;;;5.90;3.55;;;17.90;99.90;;;;;;5073984;28;20044;-72
2022/07/01 05:52:32;;;;;;;4.80;3.67;;;17.90;99.90;;;;;;5073816;28;20124;-72
2022/07/01 05:54:58;;;;;;;5.22;3.92;;;17.80;99.90;;;;;;5074096;28;20515;-71
2022/07/01 05:57:24;;;;;;;8.00;3.47;;;17.90;99.90;;;;;;5067885;28;20569;-72
2022/07/01 05:59:49;;;;;;;7.70;4.20;;;17.90;99.90;;;;;;5053685;28;20025;-72
2022/07/01 06:02:15;;;;;;;6.47;3.90;;;17.90;99.90;;;;;;5053820;28;20048;-73
2022/07/01 06:04:43;;;;;;;5.78;3.72;;;17.90;99.90;;;;;;5053636;28;20025;-72
2022/07/01 06:07:10;;;;;;;7.47;3.53;;;17.90;99.90;;;;;;5052407;28;20025;-73
2022/07/01 06:09:36;;;;;;;6.50;3.83;;;18.00;99.90;;;;;;5054093;28;20506;-72
2022/07/01 06:12:03;;;;;;;7.90;3.97;;;18.20;99.90;;;;;;5053532;28;20060;-79
2022/07/01 06:14:29;;;;;;;4.93;2.97;;;18.10;99.90;;;;;;5053199;28;20376;-73
2022/07/01 06:16:55;;;;;;;4.50;3.35;;;18.10;99.90;;;;;;5050290;28;20531;-72
2022/07/01 06:19:20;;;;;;;6.35;3.35;;;18.20;99.90;;;;;;5052522;28;20378;-72
2022/07/01 06:21:46;;;;;;;13.95;4.53;;;18.20;99.90;;;;;;5054113;28;20042;-72
2022/07/01 06:24:13;;;;;;;8.30;3.45;;;18.00;99.90;;;;;;5053791;28;20040;-75
2022/07/01 06:26:39;;;;;;;9.05;3.90;;;18.10;99.90;;;;;;5053669;28;20044;-72
2022/07/01 06:29:05;;;;;;;6.55;3.88;;;18.20;99.90;;;;;;5053479;28;20386;-72
2022/07/01 06:31:33;;;;;;;5.80;3.30;;;18.30;99.90;;;;;;5053169;28;20429;-74
2022/07/01 06:33:59;;;;;;;7.55;3.55;;;18.40;99.90;;;;;;5052683;28;20188;-74
2022/07/01 06:36:25;;;;;;;7.47;4.30;;;18.40;99.80;;;;;;5053134;28;20485;-73
2022/07/01 06:38:51;;;;;;;9.05;3.75;;;18.40;99.80;;;;;;5053312;28;20033;-70
2022/07/01 06:41:26;;;;;;;4.93;3.70;;;18.40;99.90;;;;;;5053329;28;20092;-71
2022/07/01 06:43:53;;;;;;;7.88;3.53;;;18.30;99.70;;;;;;5053254;28;20025;-71
2022/07/01 06:46:19;;;;;;;6.22;3.72;;;18.40;99.60;;;;;;5052575;28;20099;-72
2022/07/01 06:48:45;;;;;;;9.38;4.18;;;18.30;99.80;;;;;;5052235;28;20188;-71
2022/07/01 06:51:10;;;;;;;8.70;4.20;;;18.30;99.70;;;;;;5053172;28;20033;-72
2022/07/01 06:53:37;;;;;;;9.70;4.85;;;18.30;99.70;;;;;;5052723;28;20056;-72
2022/07/01 06:56:06;;;;;;;6.30;3.95;;;18.50;99.50;;;;;;5052996;28;20036;-74
2022/07/01 06:58:32;;;;;;;6.32;4.28;;;18.40;99.30;;;;;;5053371;28;20057;-73
2022/07/01 07:00:58;;;;;;;7.75;3.90;;;18.40;99.50;;;;;;5053370;28;20097;-75
2022/07/01 07:03:23;;;;;;;6.50;3.95;;;18.30;99.30;;;;;;5053143;28;20470;-71
2022/07/01 07:05:49;;;;;;;8.70;4.38;;;18.40;99.20;;;;;;5052890;28;20520;-72
2022/07/01 07:08:15;;;;;;;5.18;4.32;;;18.40;99.20;;;;;;5052970;28;20461;-73
2022/07/01 07:10:40;;;;;;;5.88;3.95;;;18.30;99.10;;;;;;5053179;28;20040;-72
2022/07/01 07:13:06;;;;;;;8.00;4.47;;;18.40;99.10;;;;;;5051513;28;20029;-72
2022/07/01 07:15:32;;;;;;;6.65;4.30;;;18.50;99.40;;;;;;5053116;28;20037;-72
2022/07/01 07:17:58;;;;;;;7.45;4.78;;;18.50;99.50;;;;;;5052301;28;20029;-71
2022/07/01 07:20:24;;;;;;;7.55;4.85;;;18.50;99.70;;;;;;5052401;28;20043;-71
2022/07/01 07:22:50;;;;;;;7.18;4.90;;;18.50;99.90;;;;;;5052309;28;20037;-72
2022/07/01 07:25:16;;;;;;;6.72;4.60;;;18.60;99.90;;;;;;5052578;28;20166;-72
2022/07/01 07:27:45;;;;;;;7.05;4.63;;;18.70;99.90;;;;;;5053045;28;20021;-73
2022/07/01 07:30:12;;;;;;;9.70;4.75;;;18.70;99.90;;;;;;5052577;28;20120;-71
2022/07/01 07:32:39;;;;;;;6.35;4.75;;;18.70;99.90;;;;;;5052018;28;20155;-72
2022/07/01 07:35:06;;;;;;;6.90;5.28;;;18.60;99.90;;;;;;5051515;28;20033;-71
2022/07/01 07:37:32;;;;;;;11.10;5.13;;;18.50;99.90;;;;;;5052569;28;20037;-72
2022/07/01 07:39:59;;;;;;;8.18;4.82;;;18.40;99.90;;;;;;5052571;28;20029;-71
2022/07/01 07:42:25;;;;;;;9.05;4.80;;;18.50;99.90;;;;;;5052247;28;20366;-73
2022/07/01 07:44:50;;;;;;;7.68;4.85;;;18.60;99.90;;;;;;5051150;28;20049;-71
2022/07/01 07:47:16;;;;;;;7.10;4.93;;;18.70;99.90;;;;;;5051796;28;20317;-71
2022/07/01 07:49:42;;;;;;;7.72;5.30;;;18.80;99.90;;;;;;5052012;28;20033;-71
2022/07/01 07:52:08;;;;;;;6.65;5.85;;;18.70;99.90;;;;;;5050717;28;20447;-73
2022/07/01 07:54:34;;;;;;;9.98;6.15;;;18.70;99.90;;;;;;5052358;28;20063;-69
2022/07/01 07:57:00;;;;;;;8.75;6.22;;;18.70;99.90;;;;;;5051879;28;20032;-72
2022/07/01 07:59:26;;;;;;;9.27;6.00;;;18.70;99.90;;;;;;5050603;28;20029;-72
2022/07/01 08:01:51;;;;;;;9.90;6.40;;;18.70;99.90;;;;;;5051384;28;20052;-72
2022/07/01 08:04:17;;;;;;;7.32;6.15;;;18.70;99.90;;;;;;5051829;28;20036;-73
2022/07/01 08:06:43;;;;;;;9.73;6.53;;;18.60;99.90;;;;;;5052212;28;20021;-73
2022/07/01 08:09:09;;;;;;;6.80;6.10;;;18.40;99.90;;;;;;5051660;28;20025;-72
2022/07/01 08:11:35;;;;;;;10.15;5.82;;;18.40;99.90;;;;;;5051542;28;20033;-73
2022/07/01 08:14:00;;;;;;;7.90;6.00;;;18.50;99.90;;;;;;5051522;28;20186;-72
2022/07/01 08:16:26;;;;;;;7.25;5.85;;;18.30;99.90;;;;;;5050512;28;20381;-71
2022/07/01 08:18:52;;;;;;;10.35;7.07;;;18.50;99.90;;;;;;5050910;28;20039;-72
2022/07/01 08:21:17;;;;;;;8.35;5.78;;;18.30;99.90;;;;;;5051030;28;20039;-73
2022/07/01 08:23:43;;;;;;;9.88;6.63;;;18.40;99.90;;;;;;5051164;28;20033;-72
2022/07/01 08:26:12;;;;;;;9.60;7.10;;;18.50;99.90;;;;;;5050774;28;20040;-71
2022/07/01 08:28:37;;;;;;;8.07;6.57;;;18.60;99.90;;;;;;5050488;28;20378;-71
2022/07/01 08:31:06;;;;;;;11.43;7.53;;;18.70;99.90;;;;;;5051069;28;20025;-72
2022/07/01 08:33:32;;;;;;;14.23;7.95;;;18.60;99.90;;;;;;5051066;28;20116;-74
2022/07/01 08:35:58;;;;;;;7.40;6.30;;;18.50;99.90;;;;;;5050638;28;20128;-72
2022/07/01 08:38:23;;;;;;;9.90;7.00;;;18.50;99.90;;;;;;5050723;28;20093;-72
2022/07/01 08:40:49;;;;;;;9.05;6.63;;;18.30;99.90;;;;;;5049241;28;20234;-72
2022/07/01 08:43:15;;;;;;;8.63;6.82;;;18.40;99.90;;;;;;5050750;28;20036;-71
2022/07/01 08:45:42;;;;;;;10.55;6.90;;;18.30;99.90;;;;;;5050062;28;20203;-71
2022/07/01 08:48:07;;;;;;;8.32;6.50;;;18.30;99.90;;;;;;5050605;28;20124;-72
2022/07/01 08:50:36;;;;;;;8.70;7.10;;;18.30;99.90;;;;;;5050475;28;20119;-71
2022/07/01 08:53:03;;;;;;;11.35;7.40;;;18.30;99.90;;;;;;5050488;28;20055;-71
2022/07/01 08:55:28;;;;;;;14.63;6.50;;;18.30;99.90;;;;;;5050290;28;20032;-72
2022/07/01 08:57:54;;;;;;;11.27;7.25;;;18.50;99.90;;;;;;5051086;28;20082;-72
2022/07/01 09:00:20;;;;;;;10.05;7.22;;;18.50;99.80;;;;;;5049204;28;20136;-71
2022/07/01 09:02:56;;;;;;;11.35;8.35;;;18.40;99.80;;;;;;5050367;28;20416;-73
2022/07/01 09:05:23;;;;;;;12.98;7.07;;;18.30;99.90;;;;;;5050358;28;20087;-73
2022/07/01 09:07:55;;;;;;;9.15;7.53;;;18.30;99.90;;;;;;5049993;28;20155;-71
2022/07/01 09:10:21;;;;;;;9.00;7.43;;;18.40;99.90;;;;;;5048592;28;20425;-70
2022/07/01 09:12:47;;;;;;;10.50;7.13;;;18.40;99.50;;;;;;5050573;28;20120;-71
2022/07/01 09:15:26;;;;;;;10.57;7.95;;;18.00;99.30;;;;;;5049739;28;20108;-71
2022/07/01 09:17:53;;;;;;;9.85;6.70;;;17.90;99.80;;;;;;5050017;28;20120;-72
2022/07/01 09:20:28;;;;;;;11.33;7.50;;;18.00;99.50;;;;;;5049989;28;20025;-73
2022/07/01 09:23:07;;;;;;;13.38;7.35;;;18.30;99.50;;;;;;5049761;28;20290;-73
2022/07/01 09:25:45;;;;;;;11.00;7.25;;;18.40;98.80;;;;;;5049409;28;20025;-73
2022/07/01 09:28:13;;;;;;;;;;;18.30;98.90;;;;;;5050182;28;20025;-72
2022/07/01 09:30:42;;;;;;;11.18;7.18;;;18.20;99.10;;;;;;5050094;28;19913;-72
2022/07/01 09:33:16;;;;;;;10.98;8.40;;;18.40;99.00;;;;;;5049846;28;20328;-72
2022/07/01 09:35:43;;;;;;;15.32;7.88;;;18.30;98.80;;;;;;5049701;28;20033;-72
2022/07/01 09:38:17;;;;;;;12.43;7.65;;;18.30;98.80;;;;;;5049814;28;20033;-72
2022/07/01 09:40:59;;;;;;;13.73;7.68;;;18.30;98.80;;;;;;5048553;28;20475;-72
2022/07/01 09:43:31;;;;;;;10.50;7.90;;;18.30;98.90;;;;;;5048429;28;20037;-72
2022/07/01 09:45:59;;;;;;;8.82;6.63;;;18.50;99.10;;;;;;5050339;28;20511;-72
2022/07/01 09:48:43;;;;;;;10.20;6.60;;;18.50;98.80;;;;;;5048789;28;20352;-73
2022/07/01 09:51:10;;;;;;;10.70;7.20;;;18.60;98.70;;;;;;5050071;28;20040;-72
2022/07/01 09:53:36;;;;;;;10.10;7.80;;;18.40;98.60;;;;;;5049376;28;20356;-73
2022/07/01 09:56:05;;;;;;;10.55;7.22;;;18.40;98.90;;;;;;5049408;28;20044;-73
2022/07/01 09:58:35;;;;;;;12.50;8.13;;;18.40;98.70;;;;;;5049440;28;20072;-72
2022/07/01 10:01:02;;;;;;;15.23;8.52;;;18.50;98.60;;;;;;5050100;28;20029;-72
2022/07/01 10:03:31;;;;;;;13.65;9.43;;;18.40;98.40;;;;;;5049383;28;20033;-72
2022/07/01 10:06:06;;;;;;;13.93;8.77;;;18.50;98.50;;;;;;5049459;28;20044;-72
2022/07/01 10:08:50;;;;;;;16.98;11.45;;;18.60;98.40;;;;;;5049353;28;20352;-73
2022/07/01 10:11:34;;;;;;;11.10;9.32;;;18.70;98.10;;;;;;5049224;28;20460;-72
2022/07/01 10:14:03;;;;;;;13.07;8.88;;;18.60;98.00;;;;;;5047902;28;20098;-73
2022/07/01 10:16:30;;;;;;;13.63;9.38;;;18.70;97.90;;;;;;5048927;28;20079;-72
2022/07/01 10:18:56;;;;;;;18.52;10.02;;;18.80;97.90;;;;;;5049556;28;20116;-73
2022/07/01 10:21:29;;;;;;;12.88;8.27;;;18.80;97.60;;;;;;5050854;28;20116;-72
2022/07/01 10:24:16;;;;;;;13.13;8.90;;;18.90;97.80;;;;;;5051834;28;20124;-72
2022/07/01 10:26:43;;;;;;;12.98;8.88;;;19.00;97.70;;;;;;5051790;28;20407;-72
2022/07/01 10:29:34;;;;;;;13.68;9.30;;;19.00;97.30;;;;;;5052823;28;20033;-72
2022/07/01 10:32:29;;;;;;;13.32;8.98;;;18.90;97.10;;;;;;5052796;28;20071;-73
2022/07/01 10:35:05;;;;;;;13.60;9.35;;;18.80;97.20;;;;;;5039692;28;20273;-73
2022/07/01 10:37:31;;;;;;;13.65;9.75;;;18.80;97.40;;;;;;5052713;28;20116;-72
2022/07/01 10:40:00;;;;;;;16.13;10.15;;;18.80;97.20;;;;;;5053154;28;20455;-73
2022/07/01 10:42:36;;;;;;;16.65;9.68;;;18.80;97.10;;;;;;5053130;28;20039;-72
2022/07/01 10:45:11;;;;;;;14.05;9.10;;;19.00;97.10;;;;;;5051312;28;20033;-72
2022/07/01 10:47:39;;;;;;;13.10;8.57;;;19.10;96.80;;;;;;5053025;28;20424;-73
2022/07/01 10:50:06;;;;;;;19.13;10.10;;;19.30;96.70;;;;;;5051301;28;20029;-73
2022/07/01 10:52:33;;;;;;;14.25;9.15;;;19.50;96.40;;;;;;5051105;28;20029;-72
2022/07/01 10:55:00;;;;;;;12.95;9.18;;;19.50;95.80;;;;;;5052866;28;20100;-73
2022/07/01 10:57:38;;;;;;;15.32;10.43;;;19.50;95.60;;;;;;5052485;28;20024;-72
2022/07/01 11:00:04;;;;;;;13.55;8.70;;;19.50;95.90;;;;;;5052614;28;20401;-71
2022/07/01 11:02:39;;;;;;;11.20;8.38;;;19.50;95.90;;;;;;5052301;28;20098;-72
2022/07/01 11:05:11;;;;;;;12.60;8.52;;;19.70;95.60;;;;;;5052063;28;20451;-71
2022/07/01 11:07:42;;;;;;;11.30;7.60;;;19.80;95.10;;;;;;5052592;28;20105;-73
2022/07/01 11:10:10;;;;;;;13.70;8.65;;;19.80;95.10;;;;;;5052265;28;20320;-71
2022/07/01 11:12:36;;;;;;;12.63;9.05;;;19.80;94.90;;;;;;5052506;28;20344;-73
2022/07/01 11:15:07;;;;;;;17.75;12.63;;;19.90;94.80;;;;;;5051836;28;20021;-78
2022/07/01 11:17:34;;;;;;;13.93;9.95;;;19.90;94.90;;;;;;5050744;28;20036;-71
2022/07/01 11:20:04;;;;;;;24.80;15.05;;;19.90;94.70;;;;;;5051882;28;20040;-71
2022/07/01 11:22:33;;;;;;;16.27;9.65;;;19.90;94.70;;;;;;5050650;28;20032;-71
2022/07/01 11:25:19;;;;;;;20.77;13.35;;;19.80;95.00;;;;;;5052179;28;20431;-70
2022/07/01 11:27:47;;;;;;;16.67;10.43;;;19.80;95.20;;;;;;5051861;28;20522;-74
2022/07/01 11:30:14;;;;;;;;;;;19.80;95.70;;;;;;5052399;28;20120;-72
2022/07/01 11:32:46;;;;;;;16.00;10.48;;;19.90;95.40;;;;;;5050846;28;19912;-72
2022/07/01 11:41:18;;;;;;;11.55;8.02;;;19.80;94.70;;;;;;5035456;28;20424;-72
2022/07/01 11:43:44;;;;;;;12.85;8.90;;;19.80;94.40;;;;;;5052013;28;20033;-73
2022/07/01 11:46:09;;;;;;;13.52;8.45;;;19.70;94.10;;;;;;5051412;28;20466;-72
2022/07/01 11:48:37;;;;;;;12.80;8.45;;;19.70;94.20;;;;;;5051781;28;20033;-72
2022/07/01 11:51:20;;;;;;;14.65;7.90;;;19.80;94.30;;;;;;5051380;28;20056;-72
2022/07/01 11:53:49;;;;;;;14.40;7.32;;;19.80;94.20;;;;;;5051352;28;20041;-72
2022/07/01 11:56:15;;;;;;;13.15;7.68;;;19.70;94.10;;;;;;5051218;28;20047;-72
2022/07/01 11:58:52;;;;;;;9.38;6.75;;;19.60;94.10;;;;;;5049977;28;20037;-73
2022/07/01 12:01:33;;;;;;;12.25;7.10;;;19.70;93.90;;;;;;5050207;28;20392;-72
2022/07/01 12:04:02;;;;;;;30.63;16.67;;;19.50;93.80;;;;;;5051894;28;20029;-71
2022/07/01 12:06:29;;;;;;;11.02;6.43;;;19.40;93.80;;;;;;5050009;28;20029;-74
2022/07/01 12:08:56;;;;;;;12.68;8.07;;;19.50;93.60;;;;;;5051109;28;20095;-73
2022/07/01 12:11:24;;;;;;;8.93;5.10;;;19.40;93.50;;;;;;5051124;28;20509;-72
2022/07/01 12:13:51;;;;;;;9.73;4.93;;;19.50;93.60;;;;;;5050995;28;20112;-71
2022/07/01 12:16:17;;;;;;;10.48;4.53;;;19.60;93.30;;;;;;5049706;28;20060;-73
2022/07/01 12:19:00;;;;;;;5.25;3.90;;;19.70;93.40;;;;;;5051385;28;20028;-71
2022/07/01 12:21:28;;;;;;;8.65;4.32;;;19.70;93.50;;;;;;5050892;28;20366;-72
2022/07/01 12:24:11;;;;;;;7.50;3.95;;;19.70;93.00;;;;;;5050965;28;20021;-72
2022/07/01 12:26:58;;;;;;;6.75;3.40;;;19.70;92.90;;;;;;5050800;28;20447;-73
2022/07/01 12:29:26;;;;;;;7.13;3.53;;;19.80;93.00;;;;;;5050579;28;20080;-72
2022/07/01 12:31:58;;;;;;;7.40;3.63;;;19.90;92.90;;;;;;5050535;28;20108;-71
2022/07/01 12:34:35;;;;;;;9.13;4.80;;;19.90;92.80;;;;;;5050450;28;20083;-71
2022/07/01 12:37:01;;;;;;;7.40;3.95;;;19.90;92.60;;;;;;5051047;28;20100;-72
2022/07/01 12:39:28;;;;;;;7.55;4.00;;;20.00;92.40;;;;;;5049360;28;20538;-72
2022/07/01 12:41:53;;;;;;;6.72;3.90;;;19.90;92.20;;;;;;5049486;28;20037;-71
2022/07/01 12:44:21;;;;;;;9.32;3.92;;;19.70;92.70;;;;;;5049360;28;20033;-72
2022/07/01 12:46:47;;;;;;;6.25;4.13;;;19.80;92.50;;;;;;5050449;28;20532;-71
2022/07/01 12:49:24;;;;;;;6.28;3.80;;;19.80;92.90;;;;;;5048896;28;20029;-71
2022/07/01 12:51:52;;;;;;;11.27;5.57;;;19.80;93.20;;;;;;5050782;28;20112;-73
2022/07/01 12:54:36;;;;;;;8.20;4.60;;;19.70;93.30;;;;;;5050305;28;20045;-71
2022/07/01 12:57:02;;;;;;;8.48;4.18;;;19.80;93.10;;;;;;5050150;28;20045;-71
2022/07/01 12:59:27;;;;;;;7.68;3.95;;;19.90;93.30;;;;;;5050308;28;20044;-72
2022/07/01 13:01:54;;;;;;;7.43;3.78;;;19.90;93.90;;;;;;5049017;28;20047;-72
2022/07/01 13:04:24;;;;;;;6.55;3.97;;;20.00;93.60;;;;;;5049063;28;20033;-71
2022/07/01 13:06:50;;;;;;;9.20;4.47;;;19.70;93.40;;;;;;5050841;28;20021;-71
2022/07/01 13:09:16;;;;;;;6.82;4.38;;;19.70;93.80;;;;;;5050193;28;20039;-73